sensor_id;sensor_type;location;lat;lon;timestamp;pressure;altitude;pressure_sealevel;temperature;humidity
73332;BME280;61560;33.718;73.040;2023-05-12T00:00:40;94232.19;;;24.05;29.72
73332;BME280;61560;33.718;73.040;2023-05-12T00:03:07;94245.41;;;24.04;29.56
73332;BME280;61560;33.718;73.040;2023-05-12T00:05:34;94252.03;;;24.01;29.05
73332;BME280;61560;33.718;73.040;2023-05-12T00:08:01;94244.66;;;23.98;28.64
73332;BME280;61560;33.718;73.040;2023-05-12T00:10:28;94245.41;;;23.99;27.82
73332;BME280;61560;33.718;73.040;2023-05-12T00:12:55;94251.25;;;23.95;27.79
73332;BME280;61560;33.718;73.040;2023-05-12T00:15:23;94250.03;;;23.91;28.01
73332;BME280;61560;33.718;73.040;2023-05-12T00:17:50;94253.06;;;23.87;28.71
73332;BME280;61560;33.718;73.040;2023-05-12T00:20:18;94259.72;;;23.79;28.80
73332;BME280;61560;33.718;73.040;2023-05-12T00:22:44;94265.56;;;23.81;28.52
73332;BME280;61560;33.718;73.040;2023-05-12T00:34:03;94276.28;;;23.49;30.33
73332;BME280;61560;33.718;73.040;2023-05-12T00:36:30;94273.72;;;23.56;30.56
73332;BME280;61560;33.718;73.040;2023-05-12T00:38:57;94268.38;;;23.58;30.54
73332;BME280;61560;33.718;73.040;2023-05-12T00:41:25;94267.88;;;23.66;30.17
73332;BME280;61560;33.718;73.040;2023-05-12T00:43:53;94269.13;;;23.70;30.39
73332;BME280;61560;33.718;73.040;2023-05-12T00:46:23;94276.47;;;23.84;30.30
73332;BME280;61560;33.718;73.040;2023-05-12T01:00:24;94294.00;;;23.90;31.05
73332;BME280;61560;33.718;73.040;2023-05-12T01:02:51;94297.31;;;23.94;31.61
73332;BME280;61560;33.718;73.040;2023-05-12T01:05:19;94299.59;;;23.96;31.29
73332;BME280;61560;33.718;73.040;2023-05-12T01:07:46;94302.16;;;24.05;30.98
73332;BME280;61560;33.718;73.040;2023-05-12T01:10:18;94301.84;;;24.14;30.64
73332;BME280;61560;33.718;73.040;2023-05-12T01:12:46;94306.16;;;24.26;30.71
73332;BME280;61560;33.718;73.040;2023-05-12T01:15:14;94306.09;;;24.37;31.03
73332;BME280;61560;33.718;73.040;2023-05-12T01:17:46;94306.84;;;24.49;31.68
73332;BME280;61560;33.718;73.040;2023-05-12T01:20:17;94304.78;;;24.55;32.39
73332;BME280;61560;33.718;73.040;2023-05-12T01:22:48;94319.25;;;24.64;32.57
73332;BME280;61560;33.718;73.040;2023-05-12T01:25:16;94318.47;;;24.75;32.95
73332;BME280;61560;33.718;73.040;2023-05-12T01:27:46;94324.47;;;24.95;33.84
73332;BME280;61560;33.718;73.040;2023-05-12T01:30:18;94317.41;;;25.24;33.72
73332;BME280;61560;33.718;73.040;2023-05-12T01:32:46;94315.88;;;25.58;33.96
73332;BME280;61560;33.718;73.040;2023-05-12T01:35:13;94310.00;;;26.64;32.62
73332;BME280;61560;33.718;73.040;2023-05-12T01:37:50;94311.34;;;28.14;30.33
73332;BME280;61560;33.718;73.040;2023-05-12T01:40:17;94313.91;;;29.50;28.30
73332;BME280;61560;33.718;73.040;2023-05-12T01:42:44;94301.94;;;30.68;26.13
73332;BME280;61560;33.718;73.040;2023-05-12T01:45:12;94302.16;;;31.72;23.84
73332;BME280;61560;33.718;73.040;2023-05-12T01:47:39;94307.47;;;32.66;23.07
73332;BME280;61560;33.718;73.040;2023-05-12T01:50:08;94311.97;;;33.54;21.85
73332;BME280;61560;33.718;73.040;2023-05-12T01:52:36;94317.66;;;34.35;20.24
73332;BME280;61560;33.718;73.040;2023-05-12T01:55:12;94311.19;;;35.01;19.02
73332;BME280;61560;33.718;73.040;2023-05-12T01:57:48;94317.94;;;35.57;18.33
73332;BME280;61560;33.718;73.040;2023-05-12T02:00:16;94319.06;;;36.25;18.42
73332;BME280;61560;33.718;73.040;2023-05-12T02:02:46;94325.53;;;36.80;18.08
73332;BME280;61560;33.718;73.040;2023-05-12T02:05:13;94327.28;;;37.12;17.91
73332;BME280;61560;33.718;73.040;2023-05-12T02:07:42;94327.16;;;37.58;17.67
73332;BME280;61560;33.718;73.040;2023-05-12T02:10:11;94333.75;;;37.89;18.24
73332;BME280;61560;33.718;73.040;2023-05-12T02:12:41;94333.69;;;38.08;18.53
73332;BME280;61560;33.718;73.040;2023-05-12T02:15:09;94330.50;;;38.23;17.77
73332;BME280;61560;33.718;73.040;2023-05-12T02:17:40;94332.34;;;38.09;17.61
73332;BME280;61560;33.718;73.040;2023-05-12T02:20:09;94345.44;;;38.03;17.46
73332;BME280;61560;33.718;73.040;2023-05-12T02:22:37;94338.56;;;37.87;17.08
73332;BME280;61560;33.718;73.040;2023-05-12T02:25:05;94338.75;;;37.41;17.69
73332;BME280;61560;33.718;73.040;2023-05-12T02:27:32;94345.91;;;36.94;17.85
73332;BME280;61560;33.718;73.040;2023-05-12T02:30:00;94348.88;;;36.41;16.99
73332;BME280;61560;33.718;73.040;2023-05-12T02:32:27;94348.03;;;35.94;17.53
73332;BME280;61560;33.718;73.040;2023-05-12T02:34:55;94350.94;;;35.60;17.52
73332;BME280;61560;33.718;73.040;2023-05-12T02:37:23;94346.88;;;35.36;17.61
73332;BME280;61560;33.718;73.040;2023-05-12T02:39:50;94347.84;;;35.14;17.67
73332;BME280;61560;33.718;73.040;2023-05-12T02:42:18;94351.38;;;35.05;18.13
73332;BME280;61560;33.718;73.040;2023-05-12T02:44:46;94359.25;;;35.14;18.84
73332;BME280;61560;33.718;73.040;2023-05-12T02:47:13;94352.78;;;34.97;18.54
73332;BME280;61560;33.718;73.040;2023-05-12T02:49:40;94363.16;;;34.85;18.93
73332;BME280;61560;33.718;73.040;2023-05-12T02:52:07;94360.38;;;34.94;19.53
73332;BME280;61560;33.718;73.040;2023-05-12T02:54:34;94362.84;;;34.98;18.69
73332;BME280;61560;33.718;73.040;2023-05-12T02:57:05;94354.28;;;34.98;18.77
73332;BME280;61560;33.718;73.040;2023-05-12T02:59:32;94370.50;;;34.88;18.75
73332;BME280;61560;33.718;73.040;2023-05-12T03:01:59;94370.03;;;34.57;18.78
73332;BME280;61560;33.718;73.040;2023-05-12T03:04:27;94368.13;;;34.59;19.05
73332;BME280;61560;33.718;73.040;2023-05-12T03:06:54;94375.84;;;34.67;19.13
73332;BME280;61560;33.718;73.040;2023-05-12T03:09:21;94373.25;;;34.78;19.83
73332;BME280;61560;33.718;73.040;2023-05-12T03:11:48;94372.47;;;35.02;19.58
73332;BME280;61560;33.718;73.040;2023-05-12T03:14:16;94367.72;;;35.05;19.83
73332;BME280;61560;33.718;73.040;2023-05-12T03:16:44;94373.81;;;35.18;19.44
73332;BME280;61560;33.718;73.040;2023-05-12T03:19:13;94365.94;;;35.26;19.66
73332;BME280;61560;33.718;73.040;2023-05-12T03:21:40;94370.97;;;35.35;20.20
73332;BME280;61560;33.718;73.040;2023-05-12T03:24:07;94368.28;;;35.37;20.45
73332;BME280;61560;33.718;73.040;2023-05-12T03:26:34;94383.03;;;35.26;21.58
73332;BME280;61560;33.718;73.040;2023-05-12T03:29:01;94376.13;;;34.95;22.31
73332;BME280;61560;33.718;73.040;2023-05-12T03:31:31;94376.34;;;34.73;23.03
73332;BME280;61560;33.718;73.040;2023-05-12T03:33:59;94386.28;;;34.64;21.85
73332;BME280;61560;33.718;73.040;2023-05-12T03:36:26;94379.75;;;34.46;22.83
73332;BME280;61560;33.718;73.040;2023-05-12T03:38:56;94376.38;;;34.40;21.81
73332;BME280;61560;33.718;73.040;2023-05-12T03:41:23;94384.22;;;34.32;21.45
73332;BME280;61560;33.718;73.040;2023-05-12T03:43:50;94383.53;;;33.92;20.62
73332;BME280;61560;33.718;73.040;2023-05-12T03:46:17;94389.56;;;33.56;19.61
73332;BME280;61560;33.718;73.040;2023-05-12T03:48:44;94385.69;;;33.22;20.61
73332;BME280;61560;33.718;73.040;2023-05-12T03:51:11;94383.50;;;32.97;21.33
73332;BME280;61560;33.718;73.040;2023-05-12T03:53:38;94390.88;;;32.85;21.60
73332;BME280;61560;33.718;73.040;2023-05-12T03:56:12;94392.97;;;32.77;22.63
73332;BME280;61560;33.718;73.040;2023-05-12T03:58:40;94397.69;;;32.67;23.81
73332;BME280;61560;33.718;73.040;2023-05-12T04:01:08;94400.16;;;32.48;23.87
73332;BME280;61560;33.718;73.040;2023-05-12T04:03:35;94399.19;;;32.38;24.19
73332;BME280;61560;33.718;73.040;2023-05-12T04:06:03;94397.28;;;32.25;24.16
73332;BME280;61560;33.718;73.040;2023-05-12T04:08:30;94399.34;;;32.17;23.82
73332;BME280;61560;33.718;73.040;2023-05-12T04:10:58;94402.53;;;32.06;24.27
73332;BME280;61560;33.718;73.040;2023-05-12T04:13:28;94403.66;;;31.96;24.68
73332;BME280;61560;33.718;73.040;2023-05-12T04:15:57;94409.13;;;31.94;24.88
73332;BME280;61560;33.718;73.040;2023-05-12T04:18:25;94398.97;;;32.06;25.15
73332;BME280;61560;33.718;73.040;2023-05-12T04:20:54;94392.22;;;32.47;24.54
73332;BME280;61560;33.718;73.040;2023-05-12T04:23:21;94402.94;;;32.93;23.58
73332;BME280;61560;33.718;73.040;2023-05-12T04:25:48;94403.13;;;33.73;21.37
73332;BME280;61560;33.718;73.040;2023-05-12T04:28:16;94401.44;;;34.10;20.44
73332;BME280;61560;33.718;73.040;2023-05-12T04:30:43;94405.34;;;34.22;20.81
73332;BME280;61560;33.718;73.040;2023-05-12T04:33:10;94404.31;;;34.34;20.92
73332;BME280;61560;33.718;73.040;2023-05-12T04:35:39;94392.56;;;34.63;20.89
73332;BME280;61560;33.718;73.040;2023-05-12T04:38:06;94402.91;;;35.68;20.23
73332;BME280;61560;33.718;73.040;2023-05-12T04:40:33;94395.63;;;36.91;18.83
73332;BME280;61560;33.718;73.040;2023-05-12T04:43:00;94390.28;;;38.19;15.30
73332;BME280;61560;33.718;73.040;2023-05-12T04:45:30;94399.63;;;39.00;14.95
73332;BME280;61560;33.718;73.040;2023-05-12T04:47:57;94397.78;;;39.05;13.72
73332;BME280;61560;33.718;73.040;2023-05-12T04:50:24;94401.66;;;38.48;14.41
73332;BME280;61560;33.718;73.040;2023-05-12T04:52:51;94403.22;;;38.30;14.31
73332;BME280;61560;33.718;73.040;2023-05-12T04:55:18;94400.56;;;38.53;14.03
73332;BME280;61560;33.718;73.040;2023-05-12T04:57:45;94396.47;;;39.27;13.51
73332;BME280;61560;33.718;73.040;2023-05-12T05:00:12;94387.66;;;40.10;13.22
73332;BME280;61560;33.718;73.040;2023-05-12T05:02:45;94391.84;;;40.97;12.21
73332;BME280;61560;33.718;73.040;2023-05-12T05:05:13;94389.81;;;41.71;11.72
73332;BME280;61560;33.718;73.040;2023-05-12T05:07:40;94382.00;;;42.22;10.63
73332;BME280;61560;33.718;73.040;2023-05-12T05:10:11;94398.19;;;42.79;11.28
73332;BME280;61560;33.718;73.040;2023-05-12T05:12:42;94399.09;;;43.23;10.70
73332;BME280;61560;33.718;73.040;2023-05-12T05:15:10;94391.06;;;43.62;11.37
73332;BME280;61560;33.718;73.040;2023-05-12T05:17:40;94395.09;;;43.84;11.45
73332;BME280;61560;33.718;73.040;2023-05-12T05:20:10;94384.91;;;43.97;10.12
73332;BME280;61560;33.718;73.040;2023-05-12T05:22:37;94386.72;;;43.90;10.47
73332;BME280;61560;33.718;73.040;2023-05-12T05:25:05;94395.94;;;43.86;11.07
73332;BME280;61560;33.718;73.040;2023-05-12T05:27:32;94390.47;;;43.92;10.33
73332;BME280;61560;33.718;73.040;2023-05-12T05:30:00;94389.25;;;43.98;10.15
73332;BME280;61560;33.718;73.040;2023-05-12T05:32:28;94392.06;;;43.96;10.59
73332;BME280;61560;33.718;73.040;2023-05-12T05:34:56;94388.59;;;43.56;10.45
73332;BME280;61560;33.718;73.040;2023-05-12T05:37:26;94387.66;;;43.38;10.90
73332;BME280;61560;33.718;73.040;2023-05-12T05:40:18;94383.91;;;43.63;10.73
73332;BME280;61560;33.718;73.040;2023-05-12T05:43:30;94375.25;;;43.63;10.71
73332;BME280;61560;33.718;73.040;2023-05-12T05:49:24;94362.31;;;42.82;10.97
73332;BME280;61560;33.718;73.040;2023-05-12T05:51:52;94375.81;;;42.27;11.33
73332;BME280;61560;33.718;73.040;2023-05-12T05:54:22;94367.09;;;41.64;11.76
73332;BME280;61560;33.718;73.040;2023-05-12T05:56:51;94361.31;;;41.27;11.93
73332;BME280;61560;33.718;73.040;2023-05-12T05:59:18;94359.56;;;40.75;11.91
73332;BME280;61560;33.718;73.040;2023-05-12T06:01:47;94354.44;;;40.51;12.41
73332;BME280;61560;33.718;73.040;2023-05-12T06:04:16;94355.63;;;40.25;12.57
73332;BME280;61560;33.718;73.040;2023-05-12T06:10:40;94353.72;;;39.52;11.54
73332;BME280;61560;33.718;73.040;2023-05-12T06:13:08;94354.63;;;39.12;12.46
73332;BME280;61560;33.718;73.040;2023-05-12T06:15:41;94343.00;;;38.89;12.37
73332;BME280;61560;33.718;73.040;2023-05-12T06:18:11;94350.03;;;38.77;11.43
73332;BME280;61560;33.718;73.040;2023-05-12T06:20:38;94342.53;;;38.62;12.05
73332;BME280;61560;33.718;73.040;2023-05-12T06:23:08;94348.25;;;38.62;12.12
73332;BME280;61560;33.718;73.040;2023-05-12T06:25:38;94343.88;;;38.71;11.81
73332;BME280;61560;33.718;73.040;2023-05-12T06:28:07;94340.03;;;38.78;11.60
73332;BME280;61560;33.718;73.040;2023-05-12T06:30:44;94334.03;;;38.74;11.97
73332;BME280;61560;33.718;73.040;2023-05-12T06:33:11;94339.03;;;38.64;12.54
73332;BME280;61560;33.718;73.040;2023-05-12T06:35:40;94338.00;;;38.59;12.71
73332;BME280;61560;33.718;73.040;2023-05-12T06:38:08;94334.03;;;38.74;12.74
73332;BME280;61560;33.718;73.040;2023-05-12T06:40:35;94332.56;;;38.63;12.12
73332;BME280;61560;33.718;73.040;2023-05-12T06:43:03;94327.22;;;38.48;12.20
73332;BME280;61560;33.718;73.040;2023-05-12T06:45:34;94326.06;;;38.41;12.75
73332;BME280;61560;33.718;73.040;2023-05-12T06:48:02;94317.88;;;38.47;13.06
73332;BME280;61560;33.718;73.040;2023-05-12T06:55:00;94326.44;;;38.17;13.34
73332;BME280;61560;33.718;73.040;2023-05-12T06:57:27;94324.47;;;38.19;13.58
73332;BME280;61560;33.718;73.040;2023-05-12T06:59:54;94318.88;;;38.21;13.61
73332;BME280;61560;33.718;73.040;2023-05-12T07:02:25;94316.63;;;38.20;13.50
73332;BME280;61560;33.718;73.040;2023-05-12T07:04:52;94315.28;;;38.21;13.44
73332;BME280;61560;33.718;73.040;2023-05-12T07:07:19;94310.47;;;38.23;12.94
73332;BME280;61560;33.718;73.040;2023-05-12T07:09:46;94316.34;;;38.16;13.09
73332;BME280;61560;33.718;73.040;2023-05-12T07:12:13;94311.41;;;38.07;14.30
73332;BME280;61560;33.718;73.040;2023-05-12T07:14:40;94310.66;;;38.06;14.13
73332;BME280;61560;33.718;73.040;2023-05-12T07:17:25;94307.34;;;38.00;13.85
73332;BME280;61560;33.718;73.040;2023-05-12T07:19:54;94310.38;;;38.02;13.80
73332;BME280;61560;33.718;73.040;2023-05-12T07:22:21;94310.94;;;38.10;14.65
73332;BME280;61560;33.718;73.040;2023-05-12T07:24:52;94294.72;;;38.03;13.11
73332;BME280;61560;33.718;73.040;2023-05-12T07:27:19;94299.88;;;37.86;13.29
73332;BME280;61560;33.718;73.040;2023-05-12T07:29:46;94293.25;;;37.83;13.85
73332;BME280;61560;33.718;73.040;2023-05-12T07:32:13;94291.47;;;37.78;13.77
73332;BME280;61560;33.718;73.040;2023-05-12T07:34:40;94298.09;;;37.81;14.32
73332;BME280;61560;33.718;73.040;2023-05-12T07:37:07;94292.38;;;37.81;14.56
73332;BME280;61560;33.718;73.040;2023-05-12T07:39:34;94286.34;;;37.77;13.25
73332;BME280;61560;33.718;73.040;2023-05-12T07:42:01;94292.22;;;37.69;13.88
73332;BME280;61560;33.718;73.040;2023-05-12T07:44:28;94288.63;;;37.59;13.33
73332;BME280;61560;33.718;73.040;2023-05-12T07:46:56;94279.47;;;37.51;13.61
73332;BME280;61560;33.718;73.040;2023-05-12T07:49:23;94279.47;;;37.51;13.21
73332;BME280;61560;33.718;73.040;2023-05-12T07:51:50;94271.53;;;37.40;13.22
73332;BME280;61560;33.718;73.040;2023-05-12T07:54:17;94264.91;;;37.37;13.37
73332;BME280;61560;33.718;73.040;2023-05-12T07:56:44;94268.47;;;37.28;13.36
73332;BME280;61560;33.718;73.040;2023-05-12T07:59:11;94271.94;;;37.27;13.51
73332;BME280;61560;33.718;73.040;2023-05-12T08:01:39;94261.13;;;37.25;14.06
73332;BME280;61560;33.718;73.040;2023-05-12T08:04:07;94259.75;;;37.26;14.13
73332;BME280;61560;33.718;73.040;2023-05-12T08:06:36;94256.91;;;37.26;14.80
73332;BME280;61560;33.718;73.040;2023-05-12T08:09:03;94250.59;;;37.28;14.08
73332;BME280;61560;33.718;73.040;2023-05-12T08:11:51;94247.44;;;37.24;13.96
73332;BME280;61560;33.718;73.040;2023-05-12T08:14:37;94243.53;;;37.10;14.04
73332;BME280;61560;33.718;73.040;2023-05-12T08:17:22;94242.78;;;37.09;14.40
73332;BME280;61560;33.718;73.040;2023-05-12T08:20:08;94243.97;;;37.16;14.80
73332;BME280;61560;33.718;73.040;2023-05-12T08:23:00;94240.09;;;37.11;14.50
73332;BME280;61560;33.718;73.040;2023-05-12T08:25:49;94244.75;;;37.07;14.90
73332;BME280;61560;33.718;73.040;2023-05-12T08:28:40;94234.06;;;36.97;14.04
73332;BME280;61560;33.718;73.040;2023-05-12T08:31:07;94227.91;;;37.01;14.17
73332;BME280;61560;33.718;73.040;2023-05-12T08:33:35;94237.09;;;37.00;15.59
73332;BME280;61560;33.718;73.040;2023-05-12T08:36:05;94227.00;;;36.89;15.12
73332;BME280;61560;33.718;73.040;2023-05-12T08:38:33;94228.34;;;36.78;15.40
73332;BME280;61560;33.718;73.040;2023-05-12T08:41:24;94221.13;;;36.68;14.26
73332;BME280;61560;33.718;73.040;2023-05-12T08:43:58;94219.78;;;36.59;14.67
73332;BME280;61560;33.718;73.040;2023-05-12T08:46:25;94221.72;;;36.66;13.61
73332;BME280;61560;33.718;73.040;2023-05-12T08:48:53;94205.66;;;36.71;13.28
73332;BME280;61560;33.718;73.040;2023-05-12T08:51:23;94211.06;;;36.86;12.89
73332;BME280;61560;33.718;73.040;2023-05-12T08:53:52;94199.81;;;36.88;12.76
73332;BME280;61560;33.718;73.040;2023-05-12T08:56:22;94199.81;;;36.97;12.53
73332;BME280;61560;33.718;73.040;2023-05-12T08:58:50;94197.41;;;37.04;13.36
73332;BME280;61560;33.718;73.040;2023-05-12T09:01:19;94194.84;;;37.08;12.65
73332;BME280;61560;33.718;73.040;2023-05-12T09:03:47;94187.03;;;37.08;12.58
73332;BME280;61560;33.718;73.040;2023-05-12T09:06:16;94187.34;;;37.03;12.93
73332;BME280;61560;33.718;73.040;2023-05-12T09:08:43;94188.53;;;37.00;13.23
73332;BME280;61560;33.718;73.040;2023-05-12T09:11:12;94186.75;;;36.94;13.25
73332;BME280;61560;33.718;73.040;2023-05-12T09:16:46;94174.72;;;36.86;12.03
73332;BME280;61560;33.718;73.040;2023-05-12T09:19:34;94175.00;;;36.81;11.28
73332;BME280;61560;33.718;73.040;2023-05-12T09:22:30;94167.22;;;36.72;11.53
73332;BME280;61560;33.718;73.040;2023-05-12T09:24:59;94163.13;;;36.75;11.89
73332;BME280;61560;33.718;73.040;2023-05-12T09:27:27;94169.28;;;36.81;11.44
73332;BME280;61560;33.718;73.040;2023-05-12T09:29:55;94163.88;;;36.75;11.41
73332;BME280;61560;33.718;73.040;2023-05-12T09:32:29;94164.34;;;36.72;11.47
73332;BME280;61560;33.718;73.040;2023-05-12T09:35:02;94159.97;;;36.71;11.65
73332;BME280;61560;33.718;73.040;2023-05-12T09:37:31;94165.69;;;36.71;11.39
73332;BME280;61560;33.718;73.040;2023-05-12T09:40:03;94162.69;;;36.69;11.85
73332;BME280;61560;33.718;73.040;2023-05-12T09:42:32;94155.94;;;36.74;11.89
73332;BME280;61560;33.718;73.040;2023-05-12T09:45:05;94150.38;;;36.76;12.43
73332;BME280;61560;33.718;73.040;2023-05-12T09:47:37;94158.63;;;36.81;12.11
73332;BME280;61560;33.718;73.040;2023-05-12T09:50:08;94145.69;;;36.80;11.58
73332;BME280;61560;33.718;73.040;2023-05-12T09:52:54;94146.31;;;36.79;11.38
73332;BME280;61560;33.718;73.040;2023-05-12T09:55:22;94146.91;;;36.77;11.26
73332;BME280;61560;33.718;73.040;2023-05-12T09:57:49;94145.72;;;36.71;11.65
73332;BME280;61560;33.718;73.040;2023-05-12T10:00:18;94148.72;;;36.73;11.40
73332;BME280;61560;33.718;73.040;2023-05-12T10:02:47;94132.34;;;36.73;11.82
73332;BME280;61560;33.718;73.040;2023-05-12T10:05:37;94138.34;;;36.77;11.42
73332;BME280;61560;33.718;73.040;2023-05-12T10:12:42;94133.84;;;36.84;11.17
73332;BME280;61560;33.718;73.040;2023-05-12T10:15:43;94107.84;;;36.70;10.44
73332;BME280;61560;33.718;73.040;2023-05-12T10:18:12;94137.72;;;36.79;10.55
73332;BME280;61560;33.718;73.040;2023-05-12T10:20:43;94134.59;;;36.75;10.33
73332;BME280;61560;33.718;73.040;2023-05-12T10:23:30;94131.28;;;36.69;10.90
73332;BME280;61560;33.718;73.040;2023-05-12T10:26:00;94125.28;;;36.65;10.65
73332;BME280;61560;33.718;73.040;2023-05-12T10:28:31;94118.09;;;36.64;10.63
73332;BME280;61560;33.718;73.040;2023-05-12T10:30:59;94123.78;;;36.64;10.74
73332;BME280;61560;33.718;73.040;2023-05-12T10:33:30;94120.03;;;36.61;10.93
73332;BME280;61560;33.718;73.040;2023-05-12T10:35:58;94118.38;;;36.58;10.47
73332;BME280;61560;33.718;73.040;2023-05-12T10:38:33;94114.03;;;36.57;10.81
73332;BME280;61560;33.718;73.040;2023-05-12T10:41:05;94123.31;;;36.58;10.97
73332;BME280;61560;33.718;73.040;2023-05-12T10:43:42;94121.22;;;36.58;11.34
73332;BME280;61560;33.718;73.040;2023-05-12T10:46:16;94121.69;;;36.55;11.28
73332;BME280;61560;33.718;73.040;2023-05-12T10:49:00;94114.63;;;36.46;11.16
73332;BME280;61560;33.718;73.040;2023-05-12T10:51:46;94110.00;;;36.41;11.38
73332;BME280;61560;33.718;73.040;2023-05-12T10:54:23;94114.00;;;36.38;12.02
73332;BME280;61560;33.718;73.040;2023-05-12T10:57:14;94112.22;;;36.33;12.17
73332;BME280;61560;33.718;73.040;2023-05-12T10:59:50;94112.50;;;36.28;12.23
73332;BME280;61560;33.718;73.040;2023-05-12T11:02:21;94114.88;;;36.22;12.12
73332;BME280;61560;33.718;73.040;2023-05-12T11:04:54;94103.47;;;36.12;12.06
73332;BME280;61560;33.718;73.040;2023-05-12T11:07:25;94103.78;;;36.06;11.48
73332;BME280;61560;33.718;73.040;2023-05-12T11:09:54;94101.81;;;35.99;11.44
73332;BME280;61560;33.718;73.040;2023-05-12T11:12:28;94106.13;;;35.91;11.55
73332;BME280;61560;33.718;73.040;2023-05-12T11:15:00;94110.59;;;35.84;12.82
73332;BME280;61560;33.718;73.040;2023-05-12T11:17:29;94108.34;;;35.83;12.34
73332;BME280;61560;33.718;73.040;2023-05-12T11:19:57;94104.91;;;35.84;12.30
73332;BME280;61560;33.718;73.040;2023-05-12T11:22:26;94105.81;;;35.87;12.42
73332;BME280;61560;33.718;73.040;2023-05-12T11:24:54;94112.88;;;35.86;12.23
73332;BME280;61560;33.718;73.040;2023-05-12T11:27:22;94107.19;;;35.86;12.74
73332;BME280;61560;33.718;73.040;2023-05-12T11:29:58;94113.28;;;35.82;12.10
73332;BME280;61560;33.718;73.040;2023-05-12T11:32:26;94111.66;;;35.79;12.75
73332;BME280;61560;33.718;73.040;2023-05-12T11:34:55;94107.88;;;35.77;12.82
73332;BME280;61560;33.718;73.040;2023-05-12T11:37:25;94116.75;;;35.81;12.68
73332;BME280;61560;33.718;73.040;2023-05-12T11:39:53;94116.59;;;35.79;12.51
73332;BME280;61560;33.718;73.040;2023-05-12T11:42:20;94112.84;;;35.76;11.70
73332;BME280;61560;33.718;73.040;2023-05-12T11:44:48;94113.44;;;35.75;12.10
73332;BME280;61560;33.718;73.040;2023-05-12T11:47:18;94106.38;;;35.76;12.14
73332;BME280;61560;33.718;73.040;2023-05-12T11:49:47;94116.28;;;35.75;12.45
73332;BME280;61560;33.718;73.040;2023-05-12T11:52:16;94111.50;;;35.77;12.94
73332;BME280;61560;33.718;73.040;2023-05-12T11:55:11;94118.09;;;35.80;13.14
73332;BME280;61560;33.718;73.040;2023-05-12T11:57:38;94117.50;;;35.81;12.98
73332;BME280;61560;33.718;73.040;2023-05-12T12:00:07;94120.34;;;35.81;13.44
73332;BME280;61560;33.718;73.040;2023-05-12T12:02:35;94120.47;;;35.74;12.94
73332;BME280;61560;33.718;73.040;2023-05-12T12:05:04;94122.44;;;35.71;13.59
73332;BME280;61560;33.718;73.040;2023-05-12T12:07:42;94125.69;;;35.68;13.23
73332;BME280;61560;33.718;73.040;2023-05-12T12:10:12;94117.59;;;35.64;12.81
73332;BME280;61560;33.718;73.040;2023-05-12T12:12:40;94112.63;;;35.55;13.30
73332;BME280;61560;33.718;73.040;2023-05-12T12:15:08;94107.34;;;35.52;13.89
73332;BME280;61560;33.718;73.040;2023-05-12T12:17:37;94112.75;;;35.48;14.00
73332;BME280;61560;33.718;73.040;2023-05-12T12:20:05;94107.31;;;35.42;12.63
73332;BME280;61560;33.718;73.040;2023-05-12T12:22:34;94108.06;;;35.42;13.45
73332;BME280;61560;33.718;73.040;2023-05-12T12:25:01;94108.78;;;35.43;13.71
73332;BME280;61560;33.718;73.040;2023-05-12T12:27:29;94105.22;;;35.42;13.70
73332;BME280;61560;33.718;73.040;2023-05-12T12:29:56;94112.25;;;35.41;14.39
73332;BME280;61560;33.718;73.040;2023-05-12T12:32:23;94107.00;;;35.38;14.78
73332;BME280;61560;33.718;73.040;2023-05-12T12:34:50;94109.97;;;35.30;15.71
73332;BME280;61560;33.718;73.040;2023-05-12T12:37:19;94108.88;;;35.26;16.19
73332;BME280;61560;33.718;73.040;2023-05-12T12:39:46;94110.06;;;35.23;16.12
73332;BME280;61560;33.718;73.040;2023-05-12T12:42:13;94106.75;;;35.17;17.05
73332;BME280;61560;33.718;73.040;2023-05-12T12:44:40;94108.50;;;35.12;17.24
73332;BME280;61560;33.718;73.040;2023-05-12T12:47:07;94119.69;;;35.01;17.64
73332;BME280;61560;33.718;73.040;2023-05-12T12:49:34;94115.25;;;34.90;18.00
73332;BME280;61560;33.718;73.040;2023-05-12T12:52:02;94109.34;;;34.79;18.98
73332;BME280;61560;33.718;73.040;2023-05-12T12:54:28;94113.63;;;34.70;19.54
73332;BME280;61560;33.718;73.040;2023-05-12T12:56:56;94109.28;;;34.69;19.39
73332;BME280;61560;33.718;73.040;2023-05-12T12:59:23;94113.63;;;34.70;18.99
73332;BME280;61560;33.718;73.040;2023-05-12T13:01:51;94114.25;;;34.69;18.97
73332;BME280;61560;33.718;73.040;2023-05-12T13:04:18;94106.69;;;34.63;19.86
73332;BME280;61560;33.718;73.040;2023-05-12T13:06:49;94105.88;;;34.53;20.20
73332;BME280;61560;33.718;73.040;2023-05-12T13:09:16;94110.72;;;34.43;20.49
73332;BME280;61560;33.718;73.040;2023-05-12T13:11:44;94115.00;;;34.35;19.88
73332;BME280;61560;33.718;73.040;2023-05-12T13:14:11;94110.16;;;34.28;20.14
73332;BME280;61560;33.718;73.040;2023-05-12T13:16:39;94115.00;;;34.18;20.43
73332;BME280;61560;33.718;73.040;2023-05-12T13:19:05;94106.97;;;34.07;20.64
73332;BME280;61560;33.718;73.040;2023-05-12T13:21:33;94110.09;;;33.94;20.32
73332;BME280;61560;33.718;73.040;2023-05-12T13:24:00;94117.78;;;33.83;20.14
73332;BME280;61560;33.718;73.040;2023-05-12T13:26:29;94114.50;;;33.70;20.46
73332;BME280;61560;33.718;73.040;2023-05-12T13:28:55;94128.41;;;33.58;20.88
73332;BME280;61560;33.718;73.040;2023-05-12T13:31:22;94130.44;;;33.41;21.64
73332;BME280;61560;33.718;73.040;2023-05-12T13:33:49;94128.88;;;33.23;21.23
73332;BME280;61560;33.718;73.040;2023-05-12T13:36:17;94134.94;;;33.19;21.96
73332;BME280;61560;33.718;73.040;2023-05-12T13:38:43;94136.72;;;33.07;21.34
73332;BME280;61560;33.718;73.040;2023-05-12T13:41:10;94133.94;;;32.99;21.42
73332;BME280;61560;33.718;73.040;2023-05-12T13:43:37;94138.53;;;32.87;20.66